sensor_id;sensor_type;location;lat;lon;timestamp;temperature;humidity
15298;DHT22;7750;48.796;9.026;2023-05-07T00:01:51;18.20;61.70
15298;DHT22;7750;48.796;9.026;2023-05-07T00:06:52;18.10;61.80
15298;DHT22;7750;48.796;9.026;2023-05-07T00:11:53;18.10;62.10
15298;DHT22;7750;48.796;9.026;2023-05-07T00:16:53;18.00;62.20
15298;DHT22;7750;48.796;9.026;2023-05-07T00:21:54;18.00;63.10
15298;DHT22;7750;48.796;9.026;2023-05-07T00:26:56;18.00;62.60
15298;DHT22;7750;48.796;9.026;2023-05-07T00:31:58;17.90;62.90
15298;DHT22;7750;48.796;9.026;2023-05-07T00:36:58;17.90;62.90
15298;DHT22;7750;48.796;9.026;2023-05-07T00:41:59;17.90;63.00
15298;DHT22;7750;48.796;9.026;2023-05-07T00:47:02;17.80;63.10
15298;DHT22;7750;48.796;9.026;2023-05-07T00:52:04;17.80;63.30
15298;DHT22;7750;48.796;9.026;2023-05-07T00:57:06;17.70;63.40
15298;DHT22;7750;48.796;9.026;2023-05-07T01:02:07;17.70;63.60
15298;DHT22;7750;48.796;9.026;2023-05-07T01:07:08;17.60;63.80
15298;DHT22;7750;48.796;9.026;2023-05-07T01:12:09;17.60;64.00
15298;DHT22;7750;48.796;9.026;2023-05-07T01:17:10;17.50;63.90
15298;DHT22;7750;48.796;9.026;2023-05-07T01:22:11;17.50;64.20
15298;DHT22;7750;48.796;9.026;2023-05-07T01:27:13;17.40;64.40
15298;DHT22;7750;48.796;9.026;2023-05-07T01:32:13;17.40;64.50
15298;DHT22;7750;48.796;9.026;2023-05-07T01:37:16;17.40;64.80
15298;DHT22;7750;48.796;9.026;2023-05-07T01:42:17;17.30;64.90
15298;DHT22;7750;48.796;9.026;2023-05-07T01:47:17;17.30;65.20
15298;DHT22;7750;48.796;9.026;2023-05-07T01:52:19;17.30;65.30
15298;DHT22;7750;48.796;9.026;2023-05-07T01:57:20;17.30;65.40
15298;DHT22;7750;48.796;9.026;2023-05-07T02:02:21;17.20;65.60
15298;DHT22;7750;48.796;9.026;2023-05-07T02:07:21;17.20;65.90
15298;DHT22;7750;48.796;9.026;2023-05-07T02:12:22;17.20;65.90
15298;DHT22;7750;48.796;9.026;2023-05-07T02:17:23;17.20;66.50
15298;DHT22;7750;48.796;9.026;2023-05-07T02:22:24;17.20;66.50
15298;DHT22;7750;48.796;9.026;2023-05-07T02:27:25;17.20;66.60
15298;DHT22;7750;48.796;9.026;2023-05-07T02:32:26;17.20;66.70
15298;DHT22;7750;48.796;9.026;2023-05-07T02:37:26;17.20;66.80
15298;DHT22;7750;48.796;9.026;2023-05-07T02:42:27;17.20;66.70
15298;DHT22;7750;48.796;9.026;2023-05-07T02:47:28;17.10;66.70
15298;DHT22;7750;48.796;9.026;2023-05-07T02:52:29;17.10;66.70
15298;DHT22;7750;48.796;9.026;2023-05-07T02:57:29;17.00;66.50
15298;DHT22;7750;48.796;9.026;2023-05-07T03:02:30;17.00;66.60
15298;DHT22;7750;48.796;9.026;2023-05-07T03:07:30;16.90;66.60
15298;DHT22;7750;48.796;9.026;2023-05-07T03:12:31;16.90;66.80
15298;DHT22;7750;48.796;9.026;2023-05-07T03:17:32;16.80;66.80
15298;DHT22;7750;48.796;9.026;2023-05-07T03:22:32;16.70;66.80
15298;DHT22;7750;48.796;9.026;2023-05-07T03:27:33;16.70;67.00
15298;DHT22;7750;48.796;9.026;2023-05-07T03:32:34;16.60;67.00
15298;DHT22;7750;48.796;9.026;2023-05-07T03:37:35;16.60;67.30
15298;DHT22;7750;48.796;9.026;2023-05-07T03:42:36;16.50;67.30
15298;DHT22;7750;48.796;9.026;2023-05-07T03:47:36;16.50;68.00
15298;DHT22;7750;48.796;9.026;2023-05-07T03:52:37;16.40;67.60
15298;DHT22;7750;48.796;9.026;2023-05-07T03:57:38;16.40;67.70
15298;DHT22;7750;48.796;9.026;2023-05-07T04:02:38;16.30;67.80
15298;DHT22;7750;48.796;9.026;2023-05-07T04:07:39;16.30;68.00
15298;DHT22;7750;48.796;9.026;2023-05-07T04:12:39;16.30;68.10
15298;DHT22;7750;48.796;9.026;2023-05-07T04:17:40;16.20;68.20
15298;DHT22;7750;48.796;9.026;2023-05-07T04:22:42;16.20;68.40
15298;DHT22;7750;48.796;9.026;2023-05-07T04:27:42;16.10;68.40
15298;DHT22;7750;48.796;9.026;2023-05-07T04:32:43;16.10;68.60
15298;DHT22;7750;48.796;9.026;2023-05-07T04:37:44;16.10;68.80
15298;DHT22;7750;48.796;9.026;2023-05-07T04:42:45;16.10;68.90
15298;DHT22;7750;48.796;9.026;2023-05-07T04:47:46;16.10;69.10
15298;DHT22;7750;48.796;9.026;2023-05-07T04:52:46;16.10;69.40
15298;DHT22;7750;48.796;9.026;2023-05-07T04:57:47;16.10;69.40
15298;DHT22;7750;48.796;9.026;2023-05-07T05:02:47;16.10;69.60
15298;DHT22;7750;48.796;9.026;2023-05-07T05:07:48;16.10;69.60
15298;DHT22;7750;48.796;9.026;2023-05-07T05:12:49;16.10;69.70
15298;DHT22;7750;48.796;9.026;2023-05-07T05:17:50;16.10;70.00
15298;DHT22;7750;48.796;9.026;2023-05-07T05:22:50;16.10;70.40
15298;DHT22;7750;48.796;9.026;2023-05-07T05:27:53;16.20;70.30
15298;DHT22;7750;48.796;9.026;2023-05-07T05:33:07;16.20;70.90
15298;DHT22;7750;48.796;9.026;2023-05-07T05:38:08;16.30;71.20
15298;DHT22;7750;48.796;9.026;2023-05-07T05:43:09;16.40;71.10
15298;DHT22;7750;48.796;9.026;2023-05-07T05:48:09;16.40;71.30
15298;DHT22;7750;48.796;9.026;2023-05-07T05:53:10;16.50;71.70
15298;DHT22;7750;48.796;9.026;2023-05-07T05:58:11;16.60;71.80
15298;DHT22;7750;48.796;9.026;2023-05-07T06:03:11;16.80;72.20
15298;DHT22;7750;48.796;9.026;2023-05-07T06:08:12;17.00;72.00
15298;DHT22;7750;48.796;9.026;2023-05-07T06:13:13;17.10;71.90
15298;DHT22;7750;48.796;9.026;2023-05-07T06:18:14;17.30;71.70
15298;DHT22;7750;48.796;9.026;2023-05-07T06:23:14;17.40;71.90
15298;DHT22;7750;48.796;9.026;2023-05-07T06:28:15;17.50;71.70
15298;DHT22;7750;48.796;9.026;2023-05-07T06:33:16;17.50;71.80
15298;DHT22;7750;48.796;9.026;2023-05-07T06:38:16;17.60;71.70
15298;DHT22;7750;48.796;9.026;2023-05-07T06:43:17;17.80;72.30
15298;DHT22;7750;48.796;9.026;2023-05-07T06:48:18;18.00;72.60
15298;DHT22;7750;48.796;9.026;2023-05-07T06:53:19;18.20;72.80
15298;DHT22;7750;48.796;9.026;2023-05-07T06:58:20;18.50;73.40
15298;DHT22;7750;48.796;9.026;2023-05-07T07:03:20;18.90;73.90
15298;DHT22;7750;48.796;9.026;2023-05-07T07:08:22;19.50;73.00
15298;DHT22;7750;48.796;9.026;2023-05-07T07:13:22;20.10;72.30
15298;DHT22;7750;48.796;9.026;2023-05-07T07:18:23;20.60;71.40
15298;DHT22;7750;48.796;9.026;2023-05-07T07:23:24;21.20;69.40
15298;DHT22;7750;48.796;9.026;2023-05-07T07:28:25;21.70;69.40
15298;DHT22;7750;48.796;9.026;2023-05-07T07:33:26;22.10;68.30
15298;DHT22;7750;48.796;9.026;2023-05-07T07:38:29;22.50;67.60
15298;DHT22;7750;48.796;9.026;2023-05-07T07:43:30;22.80;65.30
15298;DHT22;7750;48.796;9.026;2023-05-07T07:48:31;23.10;65.50
15298;DHT22;7750;48.796;9.026;2023-05-07T07:53:31;23.20;64.60
15298;DHT22;7750;48.796;9.026;2023-05-07T07:58:32;23.20;64.10
15298;DHT22;7750;48.796;9.026;2023-05-07T08:03:33;23.10;64.40
15298;DHT22;7750;48.796;9.026;2023-05-07T08:08:34;23.10;64.50
15298;DHT22;7750;48.796;9.026;2023-05-07T08:13:34;23.20;63.80
15298;DHT22;7750;48.796;9.026;2023-05-07T08:18:35;23.30;65.50
15298;DHT22;7750;48.796;9.026;2023-05-07T08:23:36;23.70;64.30
15298;DHT22;7750;48.796;9.026;2023-05-07T08:28:37;24.00;62.80
15298;DHT22;7750;48.796;9.026;2023-05-07T08:33:37;24.30;61.10
15298;DHT22;7750;48.796;9.026;2023-05-07T08:38:38;24.30;59.60
15298;DHT22;7750;48.796;9.026;2023-05-07T08:43:41;24.40;60.10
15298;DHT22;7750;48.796;9.026;2023-05-07T08:48:42;24.60;59.70
15298;DHT22;7750;48.796;9.026;2023-05-07T08:53:43;24.70;58.70
15298;DHT22;7750;48.796;9.026;2023-05-07T08:58:44;24.80;58.80
15298;DHT22;7750;48.796;9.026;2023-05-07T09:03:46;24.80;58.80
15298;DHT22;7750;48.796;9.026;2023-05-07T09:08:51;24.90;57.50
15298;DHT22;7750;48.796;9.026;2023-05-07T09:13:56;24.90;58.10
15298;DHT22;7750;48.796;9.026;2023-05-07T09:18:59;25.00;58.60
15298;DHT22;7750;48.796;9.026;2023-05-07T09:24:00;25.20;57.60
15298;DHT22;7750;48.796;9.026;2023-05-07T09:29:01;25.40;58.10
15298;DHT22;7750;48.796;9.026;2023-05-07T09:34:02;25.60;56.90
15298;DHT22;7750;48.796;9.026;2023-05-07T09:39:04;25.70;56.00
15298;DHT22;7750;48.796;9.026;2023-05-07T09:44:05;25.80;56.30
15298;DHT22;7750;48.796;9.026;2023-05-07T09:49:07;25.90;56.20
15298;DHT22;7750;48.796;9.026;2023-05-07T09:54:10;26.10;56.60
15298;DHT22;7750;48.796;9.026;2023-05-07T09:59:13;26.20;55.20
15298;DHT22;7750;48.796;9.026;2023-05-07T10:04:14;26.30;55.40
15298;DHT22;7750;48.796;9.026;2023-05-07T10:09:18;26.40;56.10
15298;DHT22;7750;48.796;9.026;2023-05-07T10:14:20;26.50;54.20
15298;DHT22;7750;48.796;9.026;2023-05-07T10:19:22;26.50;54.80
15298;DHT22;7750;48.796;9.026;2023-05-07T10:24:29;26.50;55.40
15298;DHT22;7750;48.796;9.026;2023-05-07T10:35:17;26.70;54.60
15298;DHT22;7750;48.796;9.026;2023-05-07T10:40:20;26.70;54.00
15298;DHT22;7750;48.796;9.026;2023-05-07T10:45:21;26.60;54.50
15298;DHT22;7750;48.796;9.026;2023-05-07T10:50:22;26.60;53.70
15298;DHT22;7750;48.796;9.026;2023-05-07T10:55:23;26.50;54.40
15298;DHT22;7750;48.796;9.026;2023-05-07T11:05:32;26.40;54.10
15298;DHT22;7750;48.796;9.026;2023-05-07T11:10:52;26.40;54.50
15298;DHT22;7750;48.796;9.026;2023-05-07T11:15:54;26.30;54.80
15298;DHT22;7750;48.796;9.026;2023-05-07T11:20:56;26.20;56.40
15298;DHT22;7750;48.796;9.026;2023-05-07T11:26:03;26.10;57.10
15298;DHT22;7750;48.796;9.026;2023-05-07T11:31:04;26.00;58.40
15298;DHT22;7750;48.796;9.026;2023-05-07T11:36:05;25.80;58.10
15298;DHT22;7750;48.796;9.026;2023-05-07T11:41:08;25.70;58.30
15298;DHT22;7750;48.796;9.026;2023-05-07T11:46:09;25.50;59.10
15298;DHT22;7750;48.796;9.026;2023-05-07T11:51:10;25.40;60.00
15298;DHT22;7750;48.796;9.026;2023-05-07T11:56:15;25.30;60.60
15298;DHT22;7750;48.796;9.026;2023-05-07T12:01:16;25.20;61.40
15298;DHT22;7750;48.796;9.026;2023-05-07T12:06:17;25.00;59.80
15298;DHT22;7750;48.796;9.026;2023-05-07T12:11:25;24.80;59.50
15298;DHT22;7750;48.796;9.026;2023-05-07T12:16:26;24.60;59.10
15298;DHT22;7750;48.796;9.026;2023-05-07T12:21:27;24.20;59.30
15298;DHT22;7750;48.796;9.026;2023-05-07T12:26:28;24.00;59.40
15298;DHT22;7750;48.796;9.026;2023-05-07T12:31:29;23.70;59.70
15298;DHT22;7750;48.796;9.026;2023-05-07T12:36:37;23.30;59.30
15298;DHT22;7750;48.796;9.026;2023-05-07T12:41:55;23.10;60.80
15298;DHT22;7750;48.796;9.026;2023-05-07T12:46:56;22.80;60.90
15298;DHT22;7750;48.796;9.026;2023-05-07T12:51:57;22.60;62.00
15298;DHT22;7750;48.796;9.026;2023-05-07T12:57:07;22.40;62.60
15298;DHT22;7750;48.796;9.026;2023-05-07T13:02:08;22.40;64.00
15298;DHT22;7750;48.796;9.026;2023-05-07T13:07:09;22.20;63.90
15298;DHT22;7750;48.796;9.026;2023-05-07T13:12:10;22.10;63.70
15298;DHT22;7750;48.796;9.026;2023-05-07T13:17:10;21.90;63.00
15298;DHT22;7750;48.796;9.026;2023-05-07T13:22:11;21.80;63.90
15298;DHT22;7750;48.796;9.026;2023-05-07T13:27:12;21.60;63.90
15298;DHT22;7750;48.796;9.026;2023-05-07T13:32:12;21.50;64.60
15298;DHT22;7750;48.796;9.026;2023-05-07T13:37:13;21.40;64.50
15298;DHT22;7750;48.796;9.026;2023-05-07T13:42:13;21.40;64.30
15298;DHT22;7750;48.796;9.026;2023-05-07T13:47:14;21.20;65.00
15298;DHT22;7750;48.796;9.026;2023-05-07T13:52:16;21.10;66.20
15298;DHT22;7750;48.796;9.026;2023-05-07T13:57:16;21.10;64.90
15298;DHT22;7750;48.796;9.026;2023-05-07T14:02:17;21.00;65.70
15298;DHT22;7750;48.796;9.026;2023-05-07T14:07:18;20.90;65.80
15298;DHT22;7750;48.796;9.026;2023-05-07T14:12:18;20.90;66.80
15298;DHT22;7750;48.796;9.026;2023-05-07T14:17:19;20.90;67.00
15298;DHT22;7750;48.796;9.026;2023-05-07T14:22:21;20.90;68.10
15298;DHT22;7750;48.796;9.026;2023-05-07T14:27:22;20.80;68.30
15298;DHT22;7750;48.796;9.026;2023-05-07T14:32:23;20.70;69.10
15298;DHT22;7750;48.796;9.026;2023-05-07T14:37:23;20.70;69.20
15298;DHT22;7750;48.796;9.026;2023-05-07T14:42:24;20.60;69.00
15298;DHT22;7750;48.796;9.026;2023-05-07T14:47:25;20.70;69.30
15298;DHT22;7750;48.796;9.026;2023-05-07T14:52:26;20.60;69.20
15298;DHT22;7750;48.796;9.026;2023-05-07T14:57:27;20.60;69.50
15298;DHT22;7750;48.796;9.026;2023-05-07T15:02:28;20.60;69.60
15298;DHT22;7750;48.796;9.026;2023-05-07T15:07:29;20.50;69.70
15298;DHT22;7750;48.796;9.026;2023-05-07T15:12:30;20.50;70.40
15298;DHT22;7750;48.796;9.026;2023-05-07T15:17:30;20.50;70.80
15298;DHT22;7750;48.796;9.026;2023-05-07T15:22:32;20.60;71.50
15298;DHT22;7750;48.796;9.026;2023-05-07T15:58:47;20.90;72.60
15298;DHT22;7750;48.796;9.026;2023-05-07T16:09:47;20.90;74.00
15298;DHT22;7750;48.796;9.026;2023-05-07T16:15:06;20.90;73.00
15298;DHT22;7750;48.796;9.026;2023-05-07T16:20:07;20.90;73.60
15298;DHT22;7750;48.796;9.026;2023-05-07T16:25:12;20.80;73.30
15298;DHT22;7750;48.796;9.026;2023-05-07T16:30:14;20.90;73.40
15298;DHT22;7750;48.796;9.026;2023-05-07T16:35:17;20.90;72.90
15298;DHT22;7750;48.796;9.026;2023-05-07T16:40:18;20.90;73.30
15298;DHT22;7750;48.796;9.026;2023-05-07T16:45:19;21.00;73.90
15298;DHT22;7750;48.796;9.026;2023-05-07T16:50:20;21.00;73.10
15298;DHT22;7750;48.796;9.026;2023-05-07T16:55:20;21.00;73.40
15298;DHT22;7750;48.796;9.026;2023-05-07T17:05:52;21.00;73.70
15298;DHT22;7750;48.796;9.026;2023-05-07T17:10:56;20.90;73.90
15298;DHT22;7750;48.796;9.026;2023-05-07T17:15:57;20.90;74.30
15298;DHT22;7750;48.796;9.026;2023-05-07T17:20:58;20.90;74.10
15298;DHT22;7750;48.796;9.026;2023-05-07T17:25:58;20.90;74.10
15298;DHT22;7750;48.796;9.026;2023-05-07T17:30:59;20.80;73.90
15298;DHT22;7750;48.796;9.026;2023-05-07T17:36:02;20.80;74.10
15298;DHT22;7750;48.796;9.026;2023-05-07T17:41:02;20.80;74.30
15298;DHT22;7750;48.796;9.026;2023-05-07T17:46:03;20.70;74.30
15298;DHT22;7750;48.796;9.026;2023-05-07T17:51:04;20.70;74.20
15298;DHT22;7750;48.796;9.026;2023-05-07T17:56:04;20.70;74.20
15298;DHT22;7750;48.796;9.026;2023-05-07T18:01:05;20.70;74.70
15298;DHT22;7750;48.796;9.026;2023-05-07T18:06:06;20.70;74.80
15298;DHT22;7750;48.796;9.026;2023-05-07T18:11:07;20.60;74.80
15298;DHT22;7750;48.796;9.026;2023-05-07T18:16:08;20.60;75.00
15298;DHT22;7750;48.796;9.026;2023-05-07T18:21:09;20.50;74.80
15298;DHT22;7750;48.796;9.026;2023-05-07T18:26:14;20.50;74.90
15298;DHT22;7750;48.796;9.026;2023-05-07T18:31:15;20.40;75.00
15298;DHT22;7750;48.796;9.026;2023-05-07T18:36:16;20.40;74.80
15298;DHT22;7750;48.796;9.026;2023-05-07T18:41:16;20.30;74.80
15298;DHT22;7750;48.796;9.026;2023-05-07T18:46:17;20.30;75.20
15298;DHT22;7750;48.796;9.026;2023-05-07T18:51:18;20.20;75.20
15298;DHT22;7750;48.796;9.026;2023-05-07T18:56:21;20.20;75.50
15298;DHT22;7750;48.796;9.026;2023-05-07T19:01:21;20.10;75.50
15298;DHT22;7750;48.796;9.026;2023-05-07T19:06:22;20.10;75.50
15298;DHT22;7750;48.796;9.026;2023-05-07T19:11:22;20.00;75.60
15298;DHT22;7750;48.796;9.026;2023-05-07T19:16:23;20.00;75.80
15298;DHT22;7750;48.796;9.026;2023-05-07T19:21:24;19.90;76.10
15298;DHT22;7750;48.796;9.026;2023-05-07T19:26:25;19.80;76.10
15298;DHT22;7750;48.796;9.026;2023-05-07T19:31:26;19.80;76.20
15298;DHT22;7750;48.796;9.026;2023-05-07T19:36:27;19.70;76.40
15298;DHT22;7750;48.796;9.026;2023-05-07T19:41:28;19.70;76.70
15298;DHT22;7750;48.796;9.026;2023-05-07T19:46:29;19.60;76.90
15298;DHT22;7750;48.796;9.026;2023-05-07T19:51:29;19.60;77.00
15298;DHT22;7750;48.796;9.026;2023-05-07T19:56:32;19.60;77.20
15298;DHT22;7750;48.796;9.026;2023-05-07T20:01:32;19.60;77.30
15298;DHT22;7750;48.796;9.026;2023-05-07T20:06:33;19.60;77.30
15298;DHT22;7750;48.796;9.026;2023-05-07T20:11:34;19.60;77.50
15298;DHT22;7750;48.796;9.026;2023-05-07T20:16:35;19.60;77.60
15298;DHT22;7750;48.796;9.026;2023-05-07T20:21:36;19.60;77.60
15298;DHT22;7750;48.796;9.026;2023-05-07T20:26:36;19.60;77.40
15298;DHT22;7750;48.796;9.026;2023-05-07T20:31:38;19.50;77.50
15298;DHT22;7750;48.796;9.026;2023-05-07T20:36:38;19.50;77.70
15298;DHT22;7750;48.796;9.026;2023-05-07T20:41:39;19.50;77.60
15298;DHT22;7750;48.796;9.026;2023-05-07T20:46:40;19.50;77.50
15298;DHT22;7750;48.796;9.026;2023-05-07T20:51:40;19.40;77.70
15298;DHT22;7750;48.796;9.026;2023-05-07T20:56:41;19.40;77.80
15298;DHT22;7750;48.796;9.026;2023-05-07T21:01:42;19.40;78.20
15298;DHT22;7750;48.796;9.026;2023-05-07T21:06:42;19.30;78.30
15298;DHT22;7750;48.796;9.026;2023-05-07T21:11:44;19.30;78.40
15298;DHT22;7750;48.796;9.026;2023-05-07T21:16:45;19.30;78.40
15298;DHT22;7750;48.796;9.026;2023-05-07T21:21:46;19.30;79.20
15298;DHT22;7750;48.796;9.026;2023-05-07T21:26:46;19.30;78.50
15298;DHT22;7750;48.796;9.026;2023-05-07T21:31:47;19.30;78.50
15298;DHT22;7750;48.796;9.026;2023-05-07T21:36:48;19.30;78.60
15298;DHT22;7750;48.796;9.026;2023-05-07T21:41:49;19.30;78.80
15298;DHT22;7750;48.796;9.026;2023-05-07T21:46:49;19.30;78.90
15298;DHT22;7750;48.796;9.026;2023-05-07T21:51:50;19.20;78.90
15298;DHT22;7750;48.796;9.026;2023-05-07T21:56:51;19.20;79.00
15298;DHT22;7750;48.796;9.026;2023-05-07T22:01:51;19.20;79.20
15298;DHT22;7750;48.796;9.026;2023-05-07T22:06:52;19.20;79.20
15298;DHT22;7750;48.796;9.026;2023-05-07T22:11:53;19.20;79.20
15298;DHT22;7750;48.796;9.026;2023-05-07T22:16:54;19.10;79.20
15298;DHT22;7750;48.796;9.026;2023-05-07T22:21:55;19.10;79.20
15298;DHT22;7750;48.796;9.026;2023-05-07T22:26:55;19.10;79.30
15298;DHT22;7750;48.796;9.026;2023-05-07T22:31:56;19.10;79.40
15298;DHT22;7750;48.796;9.026;2023-05-07T22:36:57;19.10;79.50
15298;DHT22;7750;48.796;9.026;2023-05-07T22:41:57;19.00;79.30
15298;DHT22;7750;48.796;9.026;2023-05-07T22:46:58;19.00;79.70
15298;DHT22;7750;48.796;9.026;2023-05-07T22:51:58;19.00;79.90
15298;DHT22;7750;48.796;9.026;2023-05-07T22:56:59;19.00;80.10
15298;DHT22;7750;48.796;9.026;2023-05-07T23:02:01;19.00;80.20
15298;DHT22;7750;48.796;9.026;2023-05-07T23:07:03;19.00;80.20
15298;DHT22;7750;48.796;9.026;2023-05-07T23:12:04;18.90;80.30
15298;DHT22;7750;48.796;9.026;2023-05-07T23:17:05;18.90;80.30
15298;DHT22;7750;48.796;9.026;2023-05-07T23:22:05;18.90;80.40
15298;DHT22;7750;48.796;9.026;2023-05-07T23:27:06;18.90;80.50
15298;DHT22;7750;48.796;9.026;2023-05-07T23:32:07;18.90;80.60
15298;DHT22;7750;48.796;9.026;2023-05-07T23:37:08;18.90;80.60
15298;DHT22;7750;48.796;9.026;2023-05-07T23:42:09;18.90;80.80
15298;DHT22;7750;48.796;9.026;2023-05-07T23:47:10;18.90;80.90
15298;DHT22;7750;48.796;9.026;2023-05-07T23:52:10;19.00;81.00
15298;DHT22;7750;48.796;9.026;2023-05-07T23:57:11;18.90;80.80
